Olib — 9AA6266 — position and weather

sailwx.info

Track history (hours):
 
Tides and Currents Weather Stations Pressure Air Temp Water Temp Dewpoint Dewpoint Depression Visibility Wind Speed Wind Dir Waves Ship Positions

Olib

Last reported at 2017-Nov-17 19:30 UTC. Time now 2017-Nov-17 19:40 UTC.
Position N 59°47' E 026°46'.

Length 247 m; draft 10.9 m.

Type: Tanker. MMSI: 238252000.

Date/timePositionNaut miles runAvg speedWind from/ knotsBaromVisibWave heightAir tempDewpointWater temp
2017-Nov-17 19:30N 59°47' E 026°46'2911.2
2017-Nov-17 16:53N 59°30' E 027°33'410.1
2017-Nov-17 16:30N 59°29' E 027°40'  
2017-Nov-15 07:15N 59°43' E 026°50'2 8.1
2017-Nov-15 07:00N 59°45' E 026°47'510.4
2017-Nov-15 06:30N 59°49' E 026°41'611.7
2017-Nov-15 06:00N 59°53' E 026°33'611.5
2017-Nov-15 05:30N 59°57' E 026°25'3 6.1
2017-Nov-15 05:00N 60°00' E 026°28'4 8.6
2017-Nov-15 04:30N 60°01' E 026°36'510.9
2017-Nov-15 04:00N 60°01' E 026°47'510.9
2017-Nov-15 03:30N 59°60' E 026°58'510.3
2017-Nov-15 03:00N 60°01' E 027°08'611.2
2017-Nov-15 02:30N 60°04' E 027°17'611.0
2017-Nov-15 02:00N 60°06' E 027°27'611.1
2017-Nov-15 01:30N 60°09' E 027°37'611.1
2017-Nov-15 01:00N 60°12' E 027°46'611.3
2017-Nov-15 00:30N 60°11' E 027°57'611.5
2017-Nov-15 00:00N 60°09' E 028°09'510.8
2017-Nov-14 23:30N 60°07' E 028°19'611.1
2017-Nov-14 23:00N 60°04' E 028°28'3310.2
2017-Nov-14 19:47N 60°01' E 029°33'311.7
2017-Nov-14 19:30N 59°60' E 029°39'4 8.4
2017-Nov-14 19:00N 59°58' E 029°47'510.3
2017-Nov-14 18:30N 59°56' E 029°56'510.3
2017-Nov-14 18:00N 59°54' E 030°06'2 4.7
2017-Nov-14 17:30N 59°53' E 030°10'0 0.0
2017-Nov-14 16:58N 59°53' E 030°10'0 0.0
2017-Nov-14 16:28N 59°53' E 030°10'0 0.0
2017-Nov-14 15:55N 59°53' E 030°10'0 0.0
2017-Nov-14 15:28N 59°53' E 030°10'0 0.0
2017-Nov-14 14:59N 59°53' E 030°10'0 0.0
2017-Nov-14 14:26N 59°53' E 030°10'0 0.0
2017-Nov-14 13:58N 59°53' E 030°10'0 0.0
2017-Nov-14 13:26N 59°53' E 030°10'0 0.0
2017-Nov-14 12:58N 59°53' E 030°10'0 0.0
2017-Nov-14 12:28N 59°53' E 030°10'0 0.0
2017-Nov-14 11:22N 59°53' E 030°10'0 0.0
2017-Nov-14 10:58N 59°53' E 030°10'0 0.0
2017-Nov-14 08:28N 59°53' E 030°10'0 0.0
2017-Nov-14 07:50N 59°53' E 030°10'0 0.0
2017-Nov-14 07:29N 59°53' E 030°10'0 0.0
2017-Nov-14 06:31N 59°53' E 030°10'0 0.1
2017-Nov-14 06:28N 59°53' E 030°10'0 0.0
2017-Nov-13 22:49N 59°53' E 030°10'0 0.0
2017-Nov-13 22:22N 59°53' E 030°10'0 0.0
2017-Nov-13 01:43N 59°53' E 030°10'0 0.0
2017-Nov-13 01:28N 59°53' E 030°10'0 0.0
2017-Nov-13 00:55N 59°53' E 030°10'0 0.0
2017-Nov-13 00:25N 59°53' E 030°10'0 0.0
2017-Nov-12 12:25N 59°53' E 030°10'0 0.0
2017-Nov-12 08:43N 59°53' E 030°10'0 0.0
2017-Nov-12 08:25N 59°53' E 030°10'0 0.0
2017-Nov-12 07:43N 59°53' E 030°10'0 0.0
2017-Nov-12 03:47N 59°53' E 030°10'0 0.0
2017-Nov-12 03:30N 59°53' E 030°10'0 0.7
2017-Nov-12 03:00N 59°53' E 030°10'3 6.4
2017-Nov-12 02:30N 59°55' E 030°04'611.2
2017-Nov-12 02:00N 59°57' E 029°53'510.4
2017-Nov-12 01:30N 59°59' E 029°44'  
2017-Nov-09 03:45N 60°02' E 028°43'2 8.0
2017-Nov-09 03:30N 60°02' E 028°39'4 7.6
2017-Nov-09 03:00N 60°02' E 028°31'3 6.8
2017-Nov-09 02:30N 60°03' E 028°25'4 7.3
2017-Nov-09 02:00N 60°06' E 028°19'4 7.5
2017-Nov-09 01:30N 60°08' E 028°13'4 7.9
2017-Nov-09 01:00N 60°09' E 028°05'4 7.9
2017-Nov-09 00:30N 60°10' E 027°57'4 7.8
2017-Nov-09 00:00N 60°11' E 027°50'4 7.6
2017-Nov-08 23:30N 60°10' E 027°42'4 8.4
2017-Nov-08 23:00N 60°08' E 027°35'4 8.3
2017-Nov-08 22:30N 60°06' E 027°28'4 8.2
2017-Nov-08 22:00N 60°03' E 027°21'4 8.6
2017-Nov-08 21:30N 60°01' E 027°14'5 9.2
2017-Nov-08 21:00N 59°59' E 027°06'4 8.7
2017-Nov-08 20:31N 59°58' E 026°57'5 9.2
2017-Nov-08 20:00N 59°59' E 026°48'5 9.6
2017-Nov-08 19:30N 59°59' E 026°38'612.7
2017-Nov-08 19:00N 59°58' E 026°26'612.1
2017-Nov-08 18:30N 59°56' E 026°15'3912.4
2017-Nov-08 15:23N 59°47' E 024°60'512.4
2017-Nov-08 15:00N 59°46' E 024°51'612.1
2017-Nov-08 14:30N 59°45' E 024°39'612.3
2017-Nov-08 14:00N 59°44' E 024°27'  
Track history (hours):
 
Tides and Currents Weather Stations Pressure Air Temp Water Temp Dewpoint Dewpoint Depression Visibility Wind Speed Wind Dir Waves Ship Positions

Olib

Last reported at 2017-Nov-17 19:30 UTC. Time now 2017-Nov-17 19:40 UTC.
Position N 59°47' E 026°46'.

Length 247 m; draft 10.9 m.

Type: Tanker. MMSI: 238252000.

Date/timePositionNaut miles runAvg speedWind from/ knotsBaromVisibWave heightAir tempDewpointWater temp
2017-Nov-17 19:30N 59°47' E 026°46'2911.2
2017-Nov-17 16:53N 59°30' E 027°33'410.1
2017-Nov-17 16:30N 59°29' E 027°40'  
2017-Nov-15 07:15N 59°43' E 026°50'2 8.1
2017-Nov-15 07:00N 59°45' E 026°47'510.4
2017-Nov-15 06:30N 59°49' E 026°41'611.7
2017-Nov-15 06:00N 59°53' E 026°33'611.5
2017-Nov-15 05:30N 59°57' E 026°25'3 6.1
2017-Nov-15 05:00N 60°00' E 026°28'4 8.6
2017-Nov-15 04:30N 60°01' E 026°36'510.9
2017-Nov-15 04:00N 60°01' E 026°47'510.9
2017-Nov-15 03:30N 59°60' E 026°58'510.3
2017-Nov-15 03:00N 60°01' E 027°08'611.2
2017-Nov-15 02:30N 60°04' E 027°17'611.0
2017-Nov-15 02:00N 60°06' E 027°27'611.1
2017-Nov-15 01:30N 60°09' E 027°37'611.1
2017-Nov-15 01:00N 60°12' E 027°46'611.3
2017-Nov-15 00:30N 60°11' E 027°57'611.5
2017-Nov-15 00:00N 60°09' E 028°09'510.8
2017-Nov-14 23:30N 60°07' E 028°19'611.1
2017-Nov-14 23:00N 60°04' E 028°28'3310.2
2017-Nov-14 19:47N 60°01' E 029°33'311.7
2017-Nov-14 19:30N 59°60' E 029°39'4 8.4
2017-Nov-14 19:00N 59°58' E 029°47'510.3
2017-Nov-14 18:30N 59°56' E 029°56'510.3
2017-Nov-14 18:00N 59°54' E 030°06'2 4.7
2017-Nov-14 17:30N 59°53' E 030°10'0 0.0
2017-Nov-14 16:58N 59°53' E 030°10'0 0.0
2017-Nov-14 16:28N 59°53' E 030°10'0 0.0
2017-Nov-14 15:55N 59°53' E 030°10'0 0.0
2017-Nov-14 15:28N 59°53' E 030°10'0 0.0
2017-Nov-14 14:59N 59°53' E 030°10'0 0.0
2017-Nov-14 14:26N 59°53' E 030°10'0 0.0
2017-Nov-14 13:58N 59°53' E 030°10'0 0.0
2017-Nov-14 13:26N 59°53' E 030°10'0 0.0
2017-Nov-14 12:58N 59°53' E 030°10'0 0.0
2017-Nov-14 12:28N 59°53' E 030°10'0 0.0
2017-Nov-14 11:22N 59°53' E 030°10'0 0.0
2017-Nov-14 10:58N 59°53' E 030°10'0 0.0
2017-Nov-14 08:28N 59°53' E 030°10'0 0.0
2017-Nov-14 07:50N 59°53' E 030°10'0 0.0
2017-Nov-14 07:29N 59°53' E 030°10'0 0.0
2017-Nov-14 06:31N 59°53' E 030°10'0 0.1
2017-Nov-14 06:28N 59°53' E 030°10'0 0.0
2017-Nov-13 22:49N 59°53' E 030°10'0 0.0
2017-Nov-13 22:22N 59°53' E 030°10'0 0.0
2017-Nov-13 01:43N 59°53' E 030°10'0 0.0
2017-Nov-13 01:28N 59°53' E 030°10'0 0.0
2017-Nov-13 00:55N 59°53' E 030°10'0 0.0
2017-Nov-13 00:25N 59°53' E 030°10'0 0.0
2017-Nov-12 12:25N 59°53' E 030°10'0 0.0
2017-Nov-12 08:43N 59°53' E 030°10'0 0.0
2017-Nov-12 08:25N 59°53' E 030°10'0 0.0
2017-Nov-12 07:43N 59°53' E 030°10'0 0.0
2017-Nov-12 03:47N 59°53' E 030°10'0 0.0
2017-Nov-12 03:30N 59°53' E 030°10'0 0.7
2017-Nov-12 03:00N 59°53' E 030°10'3 6.4
2017-Nov-12 02:30N 59°55' E 030°04'611.2
2017-Nov-12 02:00N 59°57' E 029°53'510.4
2017-Nov-12 01:30N 59°59' E 029°44'  
2017-Nov-09 03:45N 60°02' E 028°43'2 8.0
2017-Nov-09 03:30N 60°02' E 028°39'4 7.6
2017-Nov-09 03:00N 60°02' E 028°31'3 6.8
2017-Nov-09 02:30N 60°03' E 028°25'4 7.3
2017-Nov-09 02:00N 60°06' E 028°19'4 7.5
2017-Nov-09 01:30N 60°08' E 028°13'4 7.9
2017-Nov-09 01:00N 60°09' E 028°05'4 7.9
2017-Nov-09 00:30N 60°10' E 027°57'4 7.8
2017-Nov-09 00:00N 60°11' E 027°50'4 7.6
2017-Nov-08 23:30N 60°10' E 027°42'4 8.4
2017-Nov-08 23:00N 60°08' E 027°35'4 8.3
2017-Nov-08 22:30N 60°06' E 027°28'4 8.2
2017-Nov-08 22:00N 60°03' E 027°21'4 8.6
2017-Nov-08 21:30N 60°01' E 027°14'5 9.2
2017-Nov-08 21:00N 59°59' E 027°06'4 8.7
2017-Nov-08 20:31N 59°58' E 026°57'5 9.2
2017-Nov-08 20:00N 59°59' E 026°48'5 9.6
2017-Nov-08 19:30N 59°59' E 026°38'612.7
2017-Nov-08 19:00N 59°58' E 026°26'612.1
2017-Nov-08 18:30N 59°56' E 026°15'3912.4
2017-Nov-08 15:23N 59°47' E 024°60'512.4
2017-Nov-08 15:00N 59°46' E 024°51'612.1
2017-Nov-08 14:30N 59°45' E 024°39'612.3
2017-Nov-08 14:00N 59°44' E 024°27'  

Dump ship's entire track history